sensor_id;sensor_type;location;lat;lon;timestamp;temperature;humidity
4354;DHT22;11018;51.258;6.806;2023-02-13T00:01:12;10.10;56.30
4354;DHT22;11018;51.258;6.806;2023-02-13T00:03:38;10.10;56.10
4354;DHT22;11018;51.258;6.806;2023-02-13T00:06:04;10.00;57.30
4354;DHT22;11018;51.258;6.806;2023-02-13T00:08:29;10.00;57.70
4354;DHT22;11018;51.258;6.806;2023-02-13T00:10:55;10.00;57.60
4354;DHT22;11018;51.258;6.806;2023-02-13T00:13:20;9.90;58.60
4354;DHT22;11018;51.258;6.806;2023-02-13T00:15:58;9.80;58.90
4354;DHT22;11018;51.258;6.806;2023-02-13T00:18:24;9.90;59.40
4354;DHT22;11018;51.258;6.806;2023-02-13T00:21:04;9.90;58.30
4354;DHT22;11018;51.258;6.806;2023-02-13T00:23:31;9.80;58.70
4354;DHT22;11018;51.258;6.806;2023-02-13T00:25:58;9.90;58.70
4354;DHT22;11018;51.258;6.806;2023-02-13T00:28:25;9.90;59.10
4354;DHT22;11018;51.258;6.806;2023-02-13T00:30:50;9.90;58.00
4354;DHT22;11018;51.258;6.806;2023-02-13T00:33:16;10.00;58.60
4354;DHT22;11018;51.258;6.806;2023-02-13T00:35:42;10.00;57.30
4354;DHT22;11018;51.258;6.806;2023-02-13T00:38:07;10.10;57.50
4354;DHT22;11018;51.258;6.806;2023-02-13T00:40:33;9.90;57.90
4354;DHT22;11018;51.258;6.806;2023-02-13T00:42:58;10.00;57.70
4354;DHT22;11018;51.258;6.806;2023-02-13T00:45:24;10.00;57.50
4354;DHT22;11018;51.258;6.806;2023-02-13T00:47:50;9.80;59.10
4354;DHT22;11018;51.258;6.806;2023-02-13T00:50:15;9.80;59.30
4354;DHT22;11018;51.258;6.806;2023-02-13T00:52:41;9.90;59.60
4354;DHT22;11018;51.258;6.806;2023-02-13T00:55:07;9.80;59.50
4354;DHT22;11018;51.258;6.806;2023-02-13T00:57:32;9.70;61.10
4354;DHT22;11018;51.258;6.806;2023-02-13T00:59:58;9.70;62.20
4354;DHT22;11018;51.258;6.806;2023-02-13T01:02:24;9.70;60.80
4354;DHT22;11018;51.258;6.806;2023-02-13T01:04:49;9.70;61.10
4354;DHT22;11018;51.258;6.806;2023-02-13T01:07:15;9.70;60.40
4354;DHT22;11018;51.258;6.806;2023-02-13T01:09:41;9.70;61.10
4354;DHT22;11018;51.258;6.806;2023-02-13T01:12:06;9.70;60.70
4354;DHT22;11018;51.258;6.806;2023-02-13T01:14:32;9.60;61.50
4354;DHT22;11018;51.258;6.806;2023-02-13T01:16:58;9.60;62.40
4354;DHT22;11018;51.258;6.806;2023-02-13T01:19:23;9.70;61.50
4354;DHT22;11018;51.258;6.806;2023-02-13T01:21:49;9.80;60.90
4354;DHT22;11018;51.258;6.806;2023-02-13T01:24:15;9.70;61.90
4354;DHT22;11018;51.258;6.806;2023-02-13T01:26:40;9.70;61.50
4354;DHT22;11018;51.258;6.806;2023-02-13T01:29:06;9.70;61.10
4354;DHT22;11018;51.258;6.806;2023-02-13T01:31:32;9.70;61.40
4354;DHT22;11018;51.258;6.806;2023-02-13T01:33:58;9.80;59.80
4354;DHT22;11018;51.258;6.806;2023-02-13T01:36:25;9.80;59.00
4354;DHT22;11018;51.258;6.806;2023-02-13T01:38:56;9.70;61.40
4354;DHT22;11018;51.258;6.806;2023-02-13T01:41:22;9.60;62.70
4354;DHT22;11018;51.258;6.806;2023-02-13T01:46:42;9.60;62.60
4354;DHT22;11018;51.258;6.806;2023-02-13T01:49:14;9.60;62.00
4354;DHT22;11018;51.258;6.806;2023-02-13T01:51:41;9.60;61.40
4354;DHT22;11018;51.258;6.806;2023-02-13T01:54:12;9.60;60.80
4354;DHT22;11018;51.258;6.806;2023-02-13T01:56:45;9.70;61.00
4354;DHT22;11018;51.258;6.806;2023-02-13T01:59:19;9.60;61.60
4354;DHT22;11018;51.258;6.806;2023-02-13T02:01:45;9.60;62.80
4354;DHT22;11018;51.258;6.806;2023-02-13T02:04:46;9.60;62.50
4354;DHT22;11018;51.258;6.806;2023-02-13T02:07:12;9.50;62.90
4354;DHT22;11018;51.258;6.806;2023-02-13T02:09:40;9.40;63.20
4354;DHT22;11018;51.258;6.806;2023-02-13T02:12:28;9.40;63.20
4354;DHT22;11018;51.258;6.806;2023-02-13T02:14:57;9.60;61.40
4354;DHT22;11018;51.258;6.806;2023-02-13T02:17:25;9.50;62.10
4354;DHT22;11018;51.258;6.806;2023-02-13T02:23:14;9.50;61.70
4354;DHT22;11018;51.258;6.806;2023-02-13T02:38:00;9.40;63.30
4354;DHT22;11018;51.258;6.806;2023-02-13T02:40:42;9.30;63.40
4354;DHT22;11018;51.258;6.806;2023-02-13T02:43:12;9.30;63.40
4354;DHT22;11018;51.258;6.806;2023-02-13T02:48:25;9.30;64.30
4354;DHT22;11018;51.258;6.806;2023-02-13T02:51:25;9.30;64.60
4354;DHT22;11018;51.258;6.806;2023-02-13T02:54:29;9.30;64.30
4354;DHT22;11018;51.258;6.806;2023-02-13T02:57:25;9.30;64.10
4354;DHT22;11018;51.258;6.806;2023-02-13T02:59:52;9.30;63.70
4354;DHT22;11018;51.258;6.806;2023-02-13T03:02:36;9.40;63.00
4354;DHT22;11018;51.258;6.806;2023-02-13T03:05:27;9.20;64.40
4354;DHT22;11018;51.258;6.806;2023-02-13T03:08:14;9.20;64.30
4354;DHT22;11018;51.258;6.806;2023-02-13T03:10:40;9.10;66.80
4354;DHT22;11018;51.258;6.806;2023-02-13T03:15:59;9.40;63.50
4354;DHT22;11018;51.258;6.806;2023-02-13T03:18:49;9.40;63.30
4354;DHT22;11018;51.258;6.806;2023-02-13T03:25:04;9.30;64.70
4354;DHT22;11018;51.258;6.806;2023-02-13T03:27:57;9.20;65.50
4354;DHT22;11018;51.258;6.806;2023-02-13T03:39:39;9.20;65.50
4354;DHT22;11018;51.258;6.806;2023-02-13T03:44:57;9.00;67.60
4354;DHT22;11018;51.258;6.806;2023-02-13T03:47:43;9.00;68.30
4354;DHT22;11018;51.258;6.806;2023-02-13T03:50:10;9.00;67.60
4354;DHT22;11018;51.258;6.806;2023-02-13T03:52:52;9.10;67.60
4354;DHT22;11018;51.258;6.806;2023-02-13T03:55:22;9.00;67.70
4354;DHT22;11018;51.258;6.806;2023-02-13T03:58:15;9.10;67.70
4354;DHT22;11018;51.258;6.806;2023-02-13T04:01:04;8.90;69.10
4354;DHT22;11018;51.258;6.806;2023-02-13T04:03:36;9.00;67.20
4354;DHT22;11018;51.258;6.806;2023-02-13T04:06:17;8.90;69.00
4354;DHT22;11018;51.258;6.806;2023-02-13T04:08:44;8.90;70.20
4354;DHT22;11018;51.258;6.806;2023-02-13T04:11:24;8.90;70.40
4354;DHT22;11018;51.258;6.806;2023-02-13T04:14:00;8.90;69.10
4354;DHT22;11018;51.258;6.806;2023-02-13T04:16:39;9.00;68.50
4354;DHT22;11018;51.258;6.806;2023-02-13T04:19:06;9.00;67.60
4354;DHT22;11018;51.258;6.806;2023-02-13T04:21:34;8.80;69.90
4354;DHT22;11018;51.258;6.806;2023-02-13T04:24:00;8.80;70.10
4354;DHT22;11018;51.258;6.806;2023-02-13T04:26:31;8.70;72.00
4354;DHT22;11018;51.258;6.806;2023-02-13T04:28:57;8.70;71.80
4354;DHT22;11018;51.258;6.806;2023-02-13T04:31:23;8.70;71.30
4354;DHT22;11018;51.258;6.806;2023-02-13T04:33:48;8.60;71.50
4354;DHT22;11018;51.258;6.806;2023-02-13T04:36:14;8.60;73.20
4354;DHT22;11018;51.258;6.806;2023-02-13T04:38:39;8.60;73.20
4354;DHT22;11018;51.258;6.806;2023-02-13T04:41:05;8.40;74.40
4354;DHT22;11018;51.258;6.806;2023-02-13T04:43:30;8.50;75.80
4354;DHT22;11018;51.258;6.806;2023-02-13T04:45:56;8.40;74.90
4354;DHT22;11018;51.258;6.806;2023-02-13T04:48:21;8.30;76.00
4354;DHT22;11018;51.258;6.806;2023-02-13T04:50:47;8.20;77.80
4354;DHT22;11018;51.258;6.806;2023-02-13T04:53:12;8.10;78.70
4354;DHT22;11018;51.258;6.806;2023-02-13T04:55:38;8.10;80.10
4354;DHT22;11018;51.258;6.806;2023-02-13T04:58:03;8.10;81.10
4354;DHT22;11018;51.258;6.806;2023-02-13T05:00:29;8.10;81.00
4354;DHT22;11018;51.258;6.806;2023-02-13T05:03:03;8.20;78.50
4354;DHT22;11018;51.258;6.806;2023-02-13T05:05:28;8.00;80.00
4354;DHT22;11018;51.258;6.806;2023-02-13T05:07:54;8.00;80.20
4354;DHT22;11018;51.258;6.806;2023-02-13T05:10:19;7.80;81.80
4354;DHT22;11018;51.258;6.806;2023-02-13T05:12:46;7.90;84.50
4354;DHT22;11018;51.258;6.806;2023-02-13T05:15:12;7.80;83.80
4354;DHT22;11018;51.258;6.806;2023-02-13T05:17:38;7.80;84.70
4354;DHT22;11018;51.258;6.806;2023-02-13T05:20:04;7.70;86.20
4354;DHT22;11018;51.258;6.806;2023-02-13T05:22:30;7.70;87.10
4354;DHT22;11018;51.258;6.806;2023-02-13T05:25:14;7.80;86.20
4354;DHT22;11018;51.258;6.806;2023-02-13T05:27:40;7.90;83.70
4354;DHT22;11018;51.258;6.806;2023-02-13T05:30:06;7.80;84.70
4354;DHT22;11018;51.258;6.806;2023-02-13T05:32:31;7.70;86.90
4354;DHT22;11018;51.258;6.806;2023-02-13T05:34:57;7.70;88.30
4354;DHT22;11018;51.258;6.806;2023-02-13T05:37:22;7.70;87.20
4354;DHT22;11018;51.258;6.806;2023-02-13T05:39:48;7.70;87.60
4354;DHT22;11018;51.258;6.806;2023-02-13T05:42:13;7.60;87.70
4354;DHT22;11018;51.258;6.806;2023-02-13T05:44:39;7.50;89.20
4354;DHT22;11018;51.258;6.806;2023-02-13T05:47:04;7.50;89.50
4354;DHT22;11018;51.258;6.806;2023-02-13T05:49:30;7.50;90.20
4354;DHT22;11018;51.258;6.806;2023-02-13T05:51:56;7.40;90.30
4354;DHT22;11018;51.258;6.806;2023-02-13T05:54:21;7.40;92.50
4354;DHT22;11018;51.258;6.806;2023-02-13T05:56:47;7.40;92.60
4354;DHT22;11018;51.258;6.806;2023-02-13T05:59:12;7.40;92.20
4354;DHT22;11018;51.258;6.806;2023-02-13T06:01:38;7.40;91.10
4354;DHT22;11018;51.258;6.806;2023-02-13T06:04:04;7.30;90.70
4354;DHT22;11018;51.258;6.806;2023-02-13T06:06:29;7.30;90.90
4354;DHT22;11018;51.258;6.806;2023-02-13T06:08:55;7.30;91.80
4354;DHT22;11018;51.258;6.806;2023-02-13T06:11:21;7.30;92.30
4354;DHT22;11018;51.258;6.806;2023-02-13T06:13:46;7.30;92.00
4354;DHT22;11018;51.258;6.806;2023-02-13T06:16:12;7.20;91.60
4354;DHT22;11018;51.258;6.806;2023-02-13T06:18:38;7.10;92.50
4354;DHT22;11018;51.258;6.806;2023-02-13T06:21:05;7.20;93.20
4354;DHT22;11018;51.258;6.806;2023-02-13T06:23:31;7.20;93.10
4354;DHT22;11018;51.258;6.806;2023-02-13T06:26:04;7.10;93.80
4354;DHT22;11018;51.258;6.806;2023-02-13T06:28:30;7.10;93.70
4354;DHT22;11018;51.258;6.806;2023-02-13T06:30:56;7.10;95.00
4354;DHT22;11018;51.258;6.806;2023-02-13T06:33:21;7.10;94.00
4354;DHT22;11018;51.258;6.806;2023-02-13T06:35:47;7.20;93.40
4354;DHT22;11018;51.258;6.806;2023-02-13T06:38:12;7.20;93.00
4354;DHT22;11018;51.258;6.806;2023-02-13T06:40:39;7.10;93.90
4354;DHT22;11018;51.258;6.806;2023-02-13T06:43:04;7.10;94.60
4354;DHT22;11018;51.258;6.806;2023-02-13T06:45:30;7.10;94.40
4354;DHT22;11018;51.258;6.806;2023-02-13T06:47:55;7.10;93.30
4354;DHT22;11018;51.258;6.806;2023-02-13T06:50:21;7.10;95.20
4354;DHT22;11018;51.258;6.806;2023-02-13T06:52:50;7.10;96.00
4354;DHT22;11018;51.258;6.806;2023-02-13T06:55:17;7.00;96.60
4354;DHT22;11018;51.258;6.806;2023-02-13T06:57:43;7.10;95.30
4354;DHT22;11018;51.258;6.806;2023-02-13T07:00:09;7.10;95.00
4354;DHT22;11018;51.258;6.806;2023-02-13T07:02:38;7.10;96.00
4354;DHT22;11018;51.258;6.806;2023-02-13T07:05:04;7.10;95.50
4354;DHT22;11018;51.258;6.806;2023-02-13T07:07:34;7.00;95.90
4354;DHT22;11018;51.258;6.806;2023-02-13T07:10:00;7.00;97.40
4354;DHT22;11018;51.258;6.806;2023-02-13T07:12:26;7.00;97.90
4354;DHT22;11018;51.258;6.806;2023-02-13T07:14:51;7.00;95.60
4354;DHT22;11018;51.258;6.806;2023-02-13T07:17:17;7.00;96.30
4354;DHT22;11018;51.258;6.806;2023-02-13T07:19:42;7.10;96.40
4354;DHT22;11018;51.258;6.806;2023-02-13T07:22:08;7.10;95.00
4354;DHT22;11018;51.258;6.806;2023-02-13T07:24:33;7.10;95.70
4354;DHT22;11018;51.258;6.806;2023-02-13T07:27:00;7.10;93.70
4354;DHT22;11018;51.258;6.806;2023-02-13T07:29:26;7.20;94.70
4354;DHT22;11018;51.258;6.806;2023-02-13T07:31:51;7.20;93.50
4354;DHT22;11018;51.258;6.806;2023-02-13T07:34:17;7.20;92.80
4354;DHT22;11018;51.258;6.806;2023-02-13T07:36:42;7.30;92.30
4354;DHT22;11018;51.258;6.806;2023-02-13T07:39:08;7.30;90.80
4354;DHT22;11018;51.258;6.806;2023-02-13T07:41:33;7.30;90.80
4354;DHT22;11018;51.258;6.806;2023-02-13T07:43:59;7.40;89.70
4354;DHT22;11018;51.258;6.806;2023-02-13T07:46:25;7.40;89.50
4354;DHT22;11018;51.258;6.806;2023-02-13T07:48:53;7.50;89.40
4354;DHT22;11018;51.258;6.806;2023-02-13T07:51:19;7.60;91.40
4354;DHT22;11018;51.258;6.806;2023-02-13T07:53:45;7.70;90.10
4354;DHT22;11018;51.258;6.806;2023-02-13T07:56:11;7.80;89.00
4354;DHT22;11018;51.258;6.806;2023-02-13T07:58:37;7.80;87.00
4354;DHT22;11018;51.258;6.806;2023-02-13T08:01:09;7.80;86.70
4354;DHT22;11018;51.258;6.806;2023-02-13T08:03:35;7.90;82.90
4354;DHT22;11018;51.258;6.806;2023-02-13T08:06:02;7.90;82.90
4354;DHT22;11018;51.258;6.806;2023-02-13T08:08:28;7.90;82.40
4354;DHT22;11018;51.258;6.806;2023-02-13T08:10:53;7.90;81.40
4354;DHT22;11018;51.258;6.806;2023-02-13T08:13:38;8.00;80.20
4354;DHT22;11018;51.258;6.806;2023-02-13T08:16:04;8.20;77.50
4354;DHT22;11018;51.258;6.806;2023-02-13T08:18:29;8.20;76.00
4354;DHT22;11018;51.258;6.806;2023-02-13T08:20:55;8.20;75.00
4354;DHT22;11018;51.258;6.806;2023-02-13T08:23:20;8.30;74.50
4354;DHT22;11018;51.258;6.806;2023-02-13T08:25:46;8.30;74.30
4354;DHT22;11018;51.258;6.806;2023-02-13T08:28:14;8.40;72.90
4354;DHT22;11018;51.258;6.806;2023-02-13T08:30:39;8.40;72.40
4354;DHT22;11018;51.258;6.806;2023-02-13T08:33:05;9.00;70.50
4354;DHT22;11018;51.258;6.806;2023-02-13T08:35:30;9.60;58.90
4354;DHT22;11018;51.258;6.806;2023-02-13T08:37:56;9.50;58.10
4354;DHT22;11018;51.258;6.806;2023-02-13T08:40:25;9.30;59.20
4354;DHT22;11018;51.258;6.806;2023-02-13T08:42:50;9.10;61.40
4354;DHT22;11018;51.258;6.806;2023-02-13T08:45:16;9.00;62.20
4354;DHT22;11018;51.258;6.806;2023-02-13T08:47:42;8.90;63.10
4354;DHT22;11018;51.258;6.806;2023-02-13T08:50:07;9.00;63.00
4354;DHT22;11018;51.258;6.806;2023-02-13T08:52:33;8.90;62.90
4354;DHT22;11018;51.258;6.806;2023-02-13T08:54:59;9.00;62.00
4354;DHT22;11018;51.258;6.806;2023-02-13T08:57:24;9.10;61.30
4354;DHT22;11018;51.258;6.806;2023-02-13T08:59:50;9.20;60.20
4354;DHT22;11018;51.258;6.806;2023-02-13T09:02:16;9.20;59.10
4354;DHT22;11018;51.258;6.806;2023-02-13T09:04:41;9.30;60.40
4354;DHT22;11018;51.258;6.806;2023-02-13T09:07:07;9.30;59.50
4354;DHT22;11018;51.258;6.806;2023-02-13T09:09:32;9.30;58.90
4354;DHT22;11018;51.258;6.806;2023-02-13T09:11:58;9.40;56.90
4354;DHT22;11018;51.258;6.806;2023-02-13T09:14:25;9.40;58.60
4354;DHT22;11018;51.258;6.806;2023-02-13T09:16:51;9.60;58.40
4354;DHT22;11018;51.258;6.806;2023-02-13T09:19:16;9.70;56.80
4354;DHT22;11018;51.258;6.806;2023-02-13T09:21:42;9.80;55.00
4354;DHT22;11018;51.258;6.806;2023-02-13T09:24:08;9.80;53.90
4354;DHT22;11018;51.258;6.806;2023-02-13T09:26:34;9.80;53.80
4354;DHT22;11018;51.258;6.806;2023-02-13T09:28:59;9.90;52.80
4354;DHT22;11018;51.258;6.806;2023-02-13T09:31:25;10.00;50.80
4354;DHT22;11018;51.258;6.806;2023-02-13T09:33:51;10.00;50.40
4354;DHT22;11018;51.258;6.806;2023-02-13T09:36:19;10.00;50.30
4354;DHT22;11018;51.258;6.806;2023-02-13T09:38:46;10.00;48.80
4354;DHT22;11018;51.258;6.806;2023-02-13T09:41:27;10.00;50.10
4354;DHT22;11018;51.258;6.806;2023-02-13T09:46:39;10.20;49.00
4354;DHT22;11018;51.258;6.806;2023-02-13T09:49:10;10.20;48.20
4354;DHT22;11018;51.258;6.806;2023-02-13T09:51:37;10.30;48.00
4354;DHT22;11018;51.258;6.806;2023-02-13T09:54:05;10.40;46.80
4354;DHT22;11018;51.258;6.806;2023-02-13T09:56:59;10.40;45.30
4354;DHT22;11018;51.258;6.806;2023-02-13T10:04:57;10.60;44.00
4354;DHT22;11018;51.258;6.806;2023-02-13T10:13:22;10.70;42.20
4354;DHT22;11018;51.258;6.806;2023-02-13T10:16:07;10.80;42.70
4354;DHT22;11018;51.258;6.806;2023-02-13T10:18:51;10.80;41.80
4354;DHT22;11018;51.258;6.806;2023-02-13T10:21:23;10.80;41.50
4354;DHT22;11018;51.258;6.806;2023-02-13T10:24:10;10.90;41.60
4354;DHT22;11018;51.258;6.806;2023-02-13T10:26:38;11.00;39.70
4354;DHT22;11018;51.258;6.806;2023-02-13T10:29:13;11.00;39.40
4354;DHT22;11018;51.258;6.806;2023-02-13T10:32:01;11.10;39.40
4354;DHT22;11018;51.258;6.806;2023-02-13T10:34:31;11.10;38.90
4354;DHT22;11018;51.258;6.806;2023-02-13T10:36:59;11.10;38.70
4354;DHT22;11018;51.258;6.806;2023-02-13T10:39:27;11.30;38.50
4354;DHT22;11018;51.258;6.806;2023-02-13T10:42:15;11.30;38.40
4354;DHT22;11018;51.258;6.806;2023-02-13T10:47:54;11.30;37.00
4354;DHT22;11018;51.258;6.806;2023-02-13T10:56:47;11.60;36.20
4354;DHT22;11018;51.258;6.806;2023-02-13T11:02:07;11.70;36.00
4354;DHT22;11018;51.258;6.806;2023-02-13T11:04:37;11.70;35.70
4354;DHT22;11018;51.258;6.806;2023-02-13T11:07:03;11.80;35.50
4354;DHT22;11018;51.258;6.806;2023-02-13T11:09:37;11.80;35.10
4354;DHT22;11018;51.258;6.806;2023-02-13T11:12:25;11.80;35.10
4354;DHT22;11018;51.258;6.806;2023-02-13T11:15:03;12.00;34.90
4354;DHT22;11018;51.258;6.806;2023-02-13T11:17:32;12.10;32.90
4354;DHT22;11018;51.258;6.806;2023-02-13T11:20:03;12.30;32.60
4354;DHT22;11018;51.258;6.806;2023-02-13T11:22:41;12.20;33.20
4354;DHT22;11018;51.258;6.806;2023-02-13T11:25:16;12.20;33.40
4354;DHT22;11018;51.258;6.806;2023-02-13T11:27:42;12.10;32.80
4354;DHT22;11018;51.258;6.806;2023-02-13T11:30:34;12.10;32.70
4354;DHT22;11018;51.258;6.806;2023-02-13T11:33:22;12.20;32.30
4354;DHT22;11018;51.258;6.806;2023-02-13T11:35:48;12.20;32.10
4354;DHT22;11018;51.258;6.806;2023-02-13T11:40:50;12.20;32.40
4354;DHT22;11018;51.258;6.806;2023-02-13T11:45:44;12.40;31.40
4354;DHT22;11018;51.258;6.806;2023-02-13T11:48:19;12.40;30.90
4354;DHT22;11018;51.258;6.806;2023-02-13T11:50:51;12.40;31.20
4354;DHT22;11018;51.258;6.806;2023-02-13T11:53:21;12.50;30.20
4354;DHT22;11018;51.258;6.806;2023-02-13T11:58:31;12.50;30.00
4354;DHT22;11018;51.258;6.806;2023-02-13T12:03:44;12.80;29.80
4354;DHT22;11018;51.258;6.806;2023-02-13T12:06:20;13.10;29.40
4354;DHT22;11018;51.258;6.806;2023-02-13T12:08:48;12.90;28.50
4354;DHT22;11018;51.258;6.806;2023-02-13T12:14:01;12.80;28.70
4354;DHT22;11018;51.258;6.806;2023-02-13T12:19:03;13.10;28.60
4354;DHT22;11018;51.258;6.806;2023-02-13T12:24:34;12.90;28.60
4354;DHT22;11018;51.258;6.806;2023-02-13T12:32:36;13.10;28.00
4354;DHT22;11018;51.258;6.806;2023-02-13T12:38:02;13.20;27.10
4354;DHT22;11018;51.258;6.806;2023-02-13T12:40:42;13.20;26.40
4354;DHT22;11018;51.258;6.806;2023-02-13T12:46:13;13.30;26.90
4354;DHT22;11018;51.258;6.806;2023-02-13T12:49:07;13.50;27.40
4354;DHT22;11018;51.258;6.806;2023-02-13T12:55:10;13.60;25.70
4354;DHT22;11018;51.258;6.806;2023-02-13T13:03:15;13.50;25.70
4354;DHT22;11018;51.258;6.806;2023-02-13T13:14:28;13.60;24.30
4354;DHT22;11018;51.258;6.806;2023-02-13T13:22:51;13.90;23.50
4354;DHT22;11018;51.258;6.806;2023-02-13T13:25:27;13.80;23.40
4354;DHT22;11018;51.258;6.806;2023-02-13T13:28:00;13.80;23.30
4354;DHT22;11018;51.258;6.806;2023-02-13T13:30:32;13.80;23.40
4354;DHT22;11018;51.258;6.806;2023-02-13T13:33:19;13.80;23.70
4354;DHT22;11018;51.258;6.806;2023-02-13T13:36:11;13.70;23.60
4354;DHT22;11018;51.258;6.806;2023-02-13T13:38:47;13.90;23.50
4354;DHT22;11018;51.258;6.806;2023-02-13T13:41:40;14.00;23.40
4354;DHT22;11018;51.258;6.806;2023-02-13T13:44:25;14.00;22.70
4354;DHT22;11018;51.258;6.806;2023-02-13T13:52:52;14.20;22.80
4354;DHT22;11018;51.258;6.806;2023-02-13T13:55:00;14.10;22.80
4354;DHT22;11018;51.258;6.806;2023-02-13T14:02:47;14.30;22.80
4354;DHT22;11018;51.258;6.806;2023-02-13T14:07:47;14.20;22.40
4354;DHT22;11018;51.258;6.806;2023-02-13T14:23:29;15.90;18.30
4354;DHT22;11018;51.258;6.806;2023-02-13T14:34:03;17.10;15.70
4354;DHT22;11018;51.258;6.806;2023-02-13T14:36:32;17.20;15.30
4354;DHT22;11018;51.258;6.806;2023-02-13T14:39:15;17.50;14.90
4354;DHT22;11018;51.258;6.806;2023-02-13T14:44:35;17.80;14.50
4354;DHT22;11018;51.258;6.806;2023-02-13T14:47:05;17.80;13.70
4354;DHT22;11018;51.258;6.806;2023-02-13T14:49:39;17.90;13.90
4354;DHT22;11018;51.258;6.806;2023-02-13T14:52:18;18.10;13.60
4354;DHT22;11018;51.258;6.806;2023-02-13T14:54:53;18.20;13.30
4354;DHT22;11018;51.258;6.806;2023-02-13T14:57:28;18.20;13.40
4354;DHT22;11018;51.258;6.806;2023-02-13T14:59:58;18.40;13.30
4354;DHT22;11018;51.258;6.806;2023-02-13T15:02:27;18.60;12.80
4354;DHT22;11018;51.258;6.806;2023-02-13T15:05:30;18.80;12.00
4354;DHT22;11018;51.258;6.806;2023-02-13T15:08:20;18.70;12.30
4354;DHT22;11018;51.258;6.806;2023-02-13T15:10:50;18.00;13.40
4354;DHT22;11018;51.258;6.806;2023-02-13T15:13:34;17.60;14.10
4354;DHT22;11018;51.258;6.806;2023-02-13T15:16:05;17.40;14.20
4354;DHT22;11018;51.258;6.806;2023-02-13T15:18:48;17.30;14.50
4354;DHT22;11018;51.258;6.806;2023-02-13T15:21:19;17.10;15.00
4354;DHT22;11018;51.258;6.806;2023-02-13T15:23:51;17.10;15.30
4354;DHT22;11018;51.258;6.806;2023-02-13T15:26:20;17.30;15.00
4354;DHT22;11018;51.258;6.806;2023-02-13T15:29:00;17.70;14.50
4354;DHT22;11018;51.258;6.806;2023-02-13T15:31:31;18.00;13.50
4354;DHT22;11018;51.258;6.806;2023-02-13T15:33:58;18.30;13.50
4354;DHT22;11018;51.258;6.806;2023-02-13T15:36:25;18.40;13.10
4354;DHT22;11018;51.258;6.806;2023-02-13T15:39:02;18.40;12.90
4354;DHT22;11018;51.258;6.806;2023-02-13T15:41:34;18.30;12.90
4354;DHT22;11018;51.258;6.806;2023-02-13T15:44:02;18.60;12.90
4354;DHT22;11018;51.258;6.806;2023-02-13T15:46:30;18.60;12.70
4354;DHT22;11018;51.258;6.806;2023-02-13T15:49:00;18.40;12.70
4354;DHT22;11018;51.258;6.806;2023-02-13T15:51:28;18.20;13.10
4354;DHT22;11018;51.258;6.806;2023-02-13T15:54:04;17.70;13.50
4354;DHT22;11018;51.258;6.806;2023-02-13T15:56:30;17.10;14.40
4354;DHT22;11018;51.258;6.806;2023-02-13T15:58:57;16.50;15.50
4354;DHT22;11018;51.258;6.806;2023-02-13T16:01:23;15.60;16.70
4354;DHT22;11018;51.258;6.806;2023-02-13T16:04:24;15.30;18.10
4354;DHT22;11018;51.258;6.806;2023-02-13T16:06:44;14.90;18.90
4354;DHT22;11018;51.258;6.806;2023-02-13T16:09:30;14.40;19.60
4354;DHT22;11018;51.258;6.806;2023-02-13T16:14:28;13.80;21.40
4354;DHT22;11018;51.258;6.806;2023-02-13T16:24:53;13.20;24.90
4354;DHT22;11018;51.258;6.806;2023-02-13T16:27:24;13.40;24.50
4354;DHT22;11018;51.258;6.806;2023-02-13T16:29:57;13.40;24.40
4354;DHT22;11018;51.258;6.806;2023-02-13T16:32:34;13.50;23.40
4354;DHT22;11018;51.258;6.806;2023-02-13T16:35:25;13.40;24.70
4354;DHT22;11018;51.258;6.806;2023-02-13T16:37:58;13.10;25.40
4354;DHT22;11018;51.258;6.806;2023-02-13T16:40:38;13.00;26.50
4354;DHT22;11018;51.258;6.806;2023-02-13T16:51:42;12.30;30.60
4354;DHT22;11018;51.258;6.806;2023-02-13T17:02:18;12.10;30.60
4354;DHT22;11018;51.258;6.806;2023-02-13T17:07:38;12.10;29.70
4354;DHT22;11018;51.258;6.806;2023-02-13T17:12:53;11.80;31.10
4354;DHT22;11018;51.258;6.806;2023-02-13T17:15:22;11.60;31.20
4354;DHT22;11018;51.258;6.806;2023-02-13T17:17:48;11.60;34.20
4354;DHT22;11018;51.258;6.806;2023-02-13T17:20:20;11.70;33.50
4354;DHT22;11018;51.258;6.806;2023-02-13T17:22:49;11.80;32.50
4354;DHT22;11018;51.258;6.806;2023-02-13T17:25:21;11.70;33.00
4354;DHT22;11018;51.258;6.806;2023-02-13T17:27:49;11.60;32.50
4354;DHT22;11018;51.258;6.806;2023-02-13T17:30:18;11.50;32.00
4354;DHT22;11018;51.258;6.806;2023-02-13T17:32:45;11.30;32.80
4354;DHT22;11018;51.258;6.806;2023-02-13T17:35:12;11.30;33.30
4354;DHT22;11018;51.258;6.806;2023-02-13T17:37:39;11.10;34.50
4354;DHT22;11018;51.258;6.806;2023-02-13T17:40:05;10.80;35.40
4354;DHT22;11018;51.258;6.806;2023-02-13T17:42:34;10.60;36.30
4354;DHT22;11018;51.258;6.806;2023-02-13T17:45:00;10.40;37.90
4354;DHT22;11018;51.258;6.806;2023-02-13T17:47:26;10.20;39.00
4354;DHT22;11018;51.258;6.806;2023-02-13T17:49:52;10.40;38.40
4354;DHT22;11018;51.258;6.806;2023-02-13T17:52:25;10.20;38.40
4354;DHT22;11018;51.258;6.806;2023-02-13T17:54:52;10.10;41.10
4354;DHT22;11018;51.258;6.806;2023-02-13T17:57:18;9.90;40.30
4354;DHT22;11018;51.258;6.806;2023-02-13T17:59:44;9.90;42.30
4354;DHT22;11018;51.258;6.806;2023-02-13T18:02:15;10.10;40.60
4354;DHT22;11018;51.258;6.806;2023-02-13T18:04:41;10.10;40.80
4354;DHT22;11018;51.258;6.806;2023-02-13T18:07:08;10.10;40.00
4354;DHT22;11018;51.258;6.806;2023-02-13T18:09:34;10.20;38.30
4354;DHT22;11018;51.258;6.806;2023-02-13T18:11:59;10.10;38.10
4354;DHT22;11018;51.258;6.806;2023-02-13T18:14:28;9.80;39.30
4354;DHT22;11018;51.258;6.806;2023-02-13T18:16:54;9.80;39.90
4354;DHT22;11018;51.258;6.806;2023-02-13T18:19:19;9.80;39.40
4354;DHT22;11018;51.258;6.806;2023-02-13T18:21:45;9.90;38.80
4354;DHT22;11018;51.258;6.806;2023-02-13T18:24:10;9.70;39.20
4354;DHT22;11018;51.258;6.806;2023-02-13T18:26:36;9.70;39.80
4354;DHT22;11018;51.258;6.806;2023-02-13T18:29:01;9.40;41.80
4354;DHT22;11018;51.258;6.806;2023-02-13T18:31:27;9.50;42.30
4354;DHT22;11018;51.258;6.806;2023-02-13T18:33:54;9.50;42.80
4354;DHT22;11018;51.258;6.806;2023-02-13T18:36:19;9.70;41.80
4354;DHT22;11018;51.258;6.806;2023-02-13T18:38:45;9.60;41.70
4354;DHT22;11018;51.258;6.806;2023-02-13T18:41:11;9.30;43.40
4354;DHT22;11018;51.258;6.806;2023-02-13T18:43:36;9.20;44.30
4354;DHT22;11018;51.258;6.806;2023-02-13T18:46:02;8.90;46.30
4354;DHT22;11018;51.258;6.806;2023-02-13T18:48:30;8.60;48.60
4354;DHT22;11018;51.258;6.806;2023-02-13T18:50:58;8.40;50.00
4354;DHT22;11018;51.258;6.806;2023-02-13T18:53:24;8.60;50.60
4354;DHT22;11018;51.258;6.806;2023-02-13T18:55:58;8.50;50.60
4354;DHT22;11018;51.258;6.806;2023-02-13T18:58:24;8.70;49.80
4354;DHT22;11018;51.258;6.806;2023-02-13T19:00:50;8.90;48.40
4354;DHT22;11018;51.258;6.806;2023-02-13T19:03:16;8.80;49.00
4354;DHT22;11018;51.258;6.806;2023-02-13T19:05:41;8.90;48.90
4354;DHT22;11018;51.258;6.806;2023-02-13T19:08:07;9.00;47.10
4354;DHT22;11018;51.258;6.806;2023-02-13T19:10:32;9.00;46.90
4354;DHT22;11018;51.258;6.806;2023-02-13T19:12:58;8.90;47.60
4354;DHT22;11018;51.258;6.806;2023-02-13T19:15:23;8.80;48.40
4354;DHT22;11018;51.258;6.806;2023-02-13T19:17:49;8.60;50.10
4354;DHT22;11018;51.258;6.806;2023-02-13T19:20:15;8.50;51.40
4354;DHT22;11018;51.258;6.806;2023-02-13T19:22:40;8.30;52.30